Terminal Aerodrome Forecast
Issued by NWS

Home | Current Version | Previous Version | Text Only | Print | Product List | Glossary On
Versions: 1 2 3 4 5 6 7 8 9 10 11 12 13 14 15 16 17 18
000
FTUS41 KBGM 061737 AAA
TAFITH
TAF AMD
KITH 061737Z 0618/0718 16010KT P6SM SCT040 OVC100
     FM070000 14008KT 3SM -RA BR OVC015
      TEMPO 0702/0706 1SM -RASN BR OVC008
     FM070600 15008KT 3SM -RA BR OVC008
     FM071100 19008KT P6SM OVC008
     FM071500 26010KT P6SM SCT025 OVC035=

USA.gov is the U.S. government's official web portal to all federal, state and local government web resources and services.